createdAt,value
2018-05-25T00:02:23.575Z,8.33
2018-05-25T00:04:50.567Z,8.17
2018-05-25T00:07:17.574Z,6.70
2018-05-25T00:09:44.623Z,10.33
2018-05-25T00:12:11.666Z,8.27
2018-05-25T00:14:38.716Z,8.90
2018-05-25T00:17:05.769Z,9.10
2018-05-25T00:19:32.812Z,6.77
2018-05-25T00:21:59.860Z,9.03
2018-05-25T00:24:26.914Z,6.63
2018-05-25T00:26:53.956Z,9.07
2018-05-25T00:29:21.667Z,8.17
2018-05-25T00:31:48.674Z,6.93
2018-05-25T00:34:15.717Z,10.07
2018-05-25T00:36:42.764Z,5.70
2018-05-25T00:39:10.773Z,10.97
2018-05-25T00:41:37.823Z,11.37
2018-05-25T00:44:04.868Z,7.37
2018-05-25T00:46:31.928Z,8.70
2018-05-25T00:48:58.865Z,9.23
2018-05-25T00:51:25.908Z,9.43
2018-05-25T00:53:52.855Z,6.47
2018-05-25T00:56:19.906Z,7.47
2018-05-25T00:58:46.897Z,8.60
2018-05-25T01:01:14.005Z,7.50
2018-05-25T01:03:41.050Z,7.90
2018-05-25T01:06:08.110Z,6.47
2018-05-25T01:08:35.152Z,7.77
2018-05-25T01:11:02.196Z,8.30
2018-05-25T01:13:29.187Z,7.00
2018-05-25T01:15:57.215Z,8.17
2018-05-25T01:18:25.777Z,8.67
2018-05-25T01:20:52.855Z,5.80
2018-05-25T01:23:19.897Z,9.87
2018-05-25T01:25:46.945Z,6.23
2018-05-25T01:28:14.814Z,7.87
2018-05-25T01:30:41.965Z,8.77
2018-05-25T01:33:09.031Z,5.77
2018-05-25T01:35:35.973Z,8.13
2018-05-25T01:38:02.911Z,5.10
2018-05-25T01:40:29.954Z,6.60
2018-05-25T01:42:57.618Z,6.93
2018-05-25T01:45:24.670Z,5.30
2018-05-25T01:47:51.822Z,6.67
2018-05-25T01:50:18.865Z,8.47
2018-05-25T01:52:46.430Z,7.50
2018-05-25T01:55:14.090Z,5.37
2018-05-25T01:57:41.138Z,7.13
2018-05-25T02:00:08.191Z,4.83
2018-05-25T02:02:35.234Z,7.43
2018-05-25T02:05:02.285Z,5.67
2018-05-25T02:07:29.337Z,7.77
2018-05-25T02:09:56.278Z,7.10
2018-05-25T02:12:23.332Z,7.73
2018-05-25T02:14:51.405Z,8.87
2018-05-25T02:17:18.449Z,6.37
2018-05-25T02:19:45.496Z,8.27
2018-05-25T02:22:12.552Z,6.37
2018-05-25T02:24:39.594Z,9.43
2018-05-25T02:27:06.642Z,5.60
2018-05-25T02:29:33.696Z,5.83
2018-05-25T02:32:01.564Z,9.23
2018-05-25T02:34:28.616Z,9.27
2018-05-25T02:36:55.656Z,4.63
2018-05-25T02:39:22.705Z,5.53
2018-05-25T02:41:49.652Z,6.40
2018-05-25T02:44:16.700Z,4.77
2018-05-25T02:46:43.754Z,7.10
2018-05-25T02:49:10.799Z,6.73
2018-05-25T02:51:37.755Z,4.97
2018-05-25T02:54:04.791Z,4.70
2018-05-25T02:56:32.151Z,5.13
2018-05-25T02:58:59.201Z,5.13
2018-05-25T03:01:27.168Z,4.40
2018-05-25T03:03:55.139Z,7.70
2018-05-25T03:06:23.112Z,7.17
2018-05-25T03:08:50.102Z,7.67
2018-05-25T03:11:18.886Z,6.60
2018-05-25T03:13:45.839Z,5.13
2018-05-25T03:16:12.839Z,5.03
2018-05-25T03:18:41.015Z,4.63
2018-05-25T03:21:08.061Z,7.33
2018-05-25T03:23:36.382Z,9.60
2018-05-25T03:26:04.361Z,7.53
2018-05-25T03:28:32.278Z,5.93
2018-05-25T03:31:00.501Z,5.83
2018-05-25T03:33:27.506Z,4.23
2018-05-25T03:35:54.457Z,7.53
2018-05-25T03:38:21.497Z,4.30
2018-05-25T03:40:48.548Z,7.53
2018-05-25T03:43:15.803Z,4.93
2018-05-25T03:45:42.847Z,7.87
2018-05-25T03:48:09.800Z,7.50
2018-05-25T03:50:36.798Z,3.53
2018-05-25T03:53:04.402Z,5.23
2018-05-25T03:55:31.353Z,4.57
2018-05-25T03:57:58.912Z,6.63
2018-05-25T04:00:31.800Z,7.87
2018-05-25T04:02:58.842Z,6.23
2018-05-25T04:05:25.892Z,9.73
2018-05-25T04:07:52.839Z,6.80
2018-05-25T04:10:19.946Z,4.40
2018-05-25T04:12:46.940Z,4.97
2018-05-25T04:15:13.925Z,6.60
2018-05-25T04:17:40.939Z,5.33
2018-05-25T04:20:07.979Z,5.67
2018-05-25T04:22:35.028Z,6.67
2018-05-25T04:25:02.081Z,7.37
2018-05-25T04:27:29.135Z,5.97
2018-05-25T04:29:57.305Z,5.37
2018-05-25T04:32:24.246Z,5.23
2018-05-25T04:34:51.193Z,5.70
2018-05-25T04:37:18.240Z,6.83
2018-05-25T04:39:45.294Z,8.20
2018-05-25T04:42:13.259Z,12.33
2018-05-25T04:44:40.308Z,5.77
2018-05-25T04:47:07.362Z,6.63
2018-05-25T04:49:35.127Z,8.07
2018-05-25T04:52:02.787Z,7.50
2018-05-25T04:54:29.740Z,7.37
2018-05-25T04:56:56.779Z,8.27
2018-05-25T04:59:23.827Z,4.40
2018-05-25T05:01:50.882Z,7.30
2018-05-25T05:04:18.233Z,7.37
2018-05-25T05:06:45.283Z,5.00
2018-05-25T05:09:12.433Z,6.23
2018-05-25T05:11:39.797Z,6.40
2018-05-25T05:14:06.836Z,5.97
2018-05-25T05:16:33.992Z,5.27
2018-05-25T05:19:01.139Z,6.47
2018-05-25T05:21:28.188Z,6.40
2018-05-25T05:23:55.241Z,5.93
2018-05-25T05:26:23.104Z,9.13
2018-05-25T05:28:50.159Z,10.80
2018-05-25T05:31:18.123Z,6.37
2018-05-25T05:33:45.176Z,6.63
2018-05-25T05:36:12.225Z,7.20
2018-05-25T05:38:39.270Z,7.17
2018-05-25T05:41:07.545Z,6.47
2018-05-25T05:43:34.600Z,6.93
2018-05-25T05:46:01.848Z,5.47
2018-05-25T05:48:28.793Z,6.80
2018-05-25T05:50:55.855Z,7.97
2018-05-25T05:53:22.897Z,8.17
2018-05-25T05:55:49.839Z,9.50
2018-05-25T05:58:16.892Z,7.13
2018-05-25T06:00:43.935Z,6.63
2018-05-25T06:03:10.984Z,10.03
2018-05-25T06:05:38.852Z,8.37
2018-05-25T06:08:06.618Z,7.67
2018-05-25T06:10:34.075Z,8.63
2018-05-25T06:13:01.334Z,13.00
2018-05-25T06:15:28.991Z,9.70
2018-05-25T06:17:56.347Z,10.13
2018-05-25T06:20:23.295Z,8.50
2018-05-25T06:22:50.342Z,9.13
2018-05-25T06:25:17.399Z,8.00
2018-05-25T06:27:45.366Z,6.60
2018-05-25T06:30:13.336Z,6.13
2018-05-25T06:32:40.324Z,7.80
2018-05-25T06:35:07.329Z,8.60
2018-05-25T06:37:34.381Z,7.57
2018-05-25T06:40:02.344Z,7.93
2018-05-25T06:42:29.341Z,6.00
2018-05-25T06:44:56.339Z,6.20
2018-05-25T06:47:23.388Z,6.90
2018-05-25T06:49:50.442Z,6.32
2018-05-25T06:52:17.484Z,6.57
2018-05-25T06:54:44.533Z,7.20
2018-05-25T06:57:11.588Z,9.82
2018-05-25T06:59:38.631Z,6.05
2018-05-25T07:02:06.556Z,9.10
2018-05-25T07:04:33.552Z,6.78
2018-05-25T07:07:00.596Z,6.82
2018-05-25T07:09:27.650Z,5.28
2018-05-25T07:11:54.800Z,9.43
2018-05-25T07:14:21.954Z,5.07
2018-05-25T07:16:48.995Z,5.85
2018-05-25T07:19:16.043Z,5.53
2018-05-25T07:21:43.097Z,7.35
2018-05-25T07:24:10.141Z,9.18
2018-05-25T07:26:37.190Z,7.65
2018-05-25T07:29:04.244Z,7.65
2018-05-25T07:31:31.287Z,6.75
2018-05-25T07:33:58.241Z,7.18
2018-05-25T07:36:25.282Z,6.75
2018-05-25T07:38:52.330Z,7.28
2018-05-25T07:41:19.383Z,5.87
2018-05-25T07:43:46.325Z,9.07
2018-05-25T07:46:14.608Z,10.40
2018-05-25T07:48:41.651Z,8.82
2018-05-25T07:51:08.652Z,8.45
2018-05-25T07:53:35.646Z,6.72
2018-05-25T07:56:02.695Z,8.02
2018-05-25T07:58:29.748Z,8.57
2018-05-25T08:00:56.688Z,8.77
2018-05-25T08:03:23.746Z,7.70
2018-05-25T08:05:50.788Z,10.25
2018-05-25T08:08:17.835Z,10.07
2018-05-25T08:10:46.009Z,8.70
2018-05-25T08:13:13.006Z,8.15
2018-05-25T08:15:40.005Z,9.65
2018-05-25T08:18:06.955Z,11.30
2018-05-25T08:20:34.307Z,9.57
2018-05-25T08:23:01.971Z,9.25
2018-05-25T08:25:29.023Z,11.25
2018-05-25T08:27:56.067Z,9.73
2018-05-25T08:30:23.065Z,11.65
2018-05-25T08:32:50.171Z,12.10
2018-05-25T08:35:17.629Z,9.13
2018-05-25T08:37:45.184Z,11.73
2018-05-25T08:40:12.236Z,11.80
2018-05-25T08:42:39.281Z,9.18
2018-05-25T08:45:06.327Z,9.02
2018-05-25T08:47:33.387Z,8.68
2018-05-25T08:50:01.348Z,8.50
2018-05-25T08:52:28.395Z,7.95
2018-05-25T08:54:55.449Z,10.23
2018-05-25T08:57:22.493Z,11.23
2018-05-25T08:59:49.491Z,11.27
2018-05-25T09:02:16.488Z,10.90
2018-05-25T09:04:44.361Z,8.55
2018-05-25T09:07:11.722Z,10.00
2018-05-25T09:09:38.758Z,13.00
2018-05-25T09:12:05.909Z,11.43
2018-05-25T09:14:32.964Z,8.90
2018-05-25T09:17:00.008Z,10.57
2018-05-25T09:19:27.057Z,12.80
2018-05-25T09:21:55.464Z,13.90
2018-05-25T09:24:22.953Z,9.05
2018-05-25T09:26:49.949Z,10.48
2018-05-25T09:29:16.995Z,10.65
2018-05-25T09:31:43.943Z,10.48
2018-05-25T09:34:11.294Z,11.23
2018-05-25T09:36:38.342Z,9.48
2018-05-25T09:39:05.445Z,11.20
2018-05-25T09:41:32.439Z,10.55
2018-05-25T09:44:05.841Z,10.50
2018-05-25T09:46:36.066Z,10.75
2018-05-25T09:49:11.301Z,9.95
2018-05-25T09:51:47.055Z,10.50
2018-05-25T09:54:14.107Z,12.60
2018-05-25T09:56:47.713Z,11.38
2018-05-25T09:59:14.753Z,12.68
2018-05-25T10:01:43.389Z,11.98
2018-05-25T10:04:10.898Z,13.23
2018-05-25T10:06:39.014Z,9.43
2018-05-25T10:09:06.326Z,14.73
2018-05-25T10:11:34.308Z,13.77
2018-05-25T10:14:01.346Z,14.45
2018-05-25T10:16:28.394Z,9.25
2018-05-25T10:18:55.447Z,11.00
2018-05-25T10:21:22.490Z,11.48
2018-05-25T10:23:49.487Z,11.30
2018-05-25T10:26:17.357Z,10.45
2018-05-25T10:28:44.383Z,11.40
2018-05-25T10:31:11.817Z,12.18
2018-05-25T10:33:38.858Z,11.75
2018-05-25T10:36:06.523Z,9.93
2018-05-25T10:38:33.576Z,10.63
2018-05-25T10:41:00.647Z,11.50
2018-05-25T10:43:27.771Z,12.55
2018-05-25T10:45:54.819Z,12.75
2018-05-25T10:48:21.873Z,10.88
2018-05-25T10:50:48.917Z,11.65
2018-05-25T10:53:16.066Z,10.73
2018-05-25T10:55:43.834Z,10.80
2018-05-25T10:58:11.189Z,12.63
2018-05-25T11:00:38.241Z,13.38
2018-05-25T11:03:05.286Z,13.27
2018-05-25T11:05:32.335Z,17.67
2018-05-25T11:07:59.793Z,12.75
2018-05-25T11:10:26.847Z,14.48
2018-05-25T11:12:53.894Z,11.85
2018-05-25T11:15:20.940Z,13.85
2018-05-25T11:17:48.190Z,14.50
2018-05-25T11:20:15.142Z,14.40
2018-05-25T11:22:42.186Z,12.10
2018-05-25T11:25:10.111Z,10.95
2018-05-25T11:27:37.101Z,12.07
2018-05-25T11:30:04.151Z,14.15
2018-05-25T11:32:31.204Z,14.50
2018-05-25T11:34:58.250Z,12.10
2018-05-25T11:37:25.296Z,11.40
2018-05-25T11:39:52.401Z,13.25
2018-05-25T11:42:19.394Z,13.80
2018-05-25T11:44:46.444Z,15.43
2018-05-25T11:47:13.496Z,11.73
2018-05-25T11:49:40.544Z,10.32
2018-05-25T11:52:07.588Z,12.20
2018-05-25T11:54:36.008Z,11.85
2018-05-25T11:57:03.835Z,12.00
2018-05-25T11:59:31.709Z,11.73
2018-05-25T12:01:58.699Z,9.93
2018-05-25T12:04:25.801Z,9.23
2018-05-25T12:06:55.153Z,11.85
2018-05-25T12:09:22.867Z,9.48
2018-05-25T12:11:51.246Z,12.07
2018-05-25T12:14:18.301Z,10.63
2018-05-25T12:16:46.808Z,12.98
2018-05-25T12:19:13.835Z,9.43
2018-05-25T12:21:40.983Z,11.23
2018-05-25T12:24:08.748Z,8.02
2018-05-25T12:26:35.795Z,8.52
2018-05-25T12:29:03.049Z,10.23
2018-05-25T12:31:30.093Z,9.50
2018-05-25T12:33:57.143Z,11.40
2018-05-25T12:36:24.199Z,8.40
2018-05-25T12:38:51.346Z,14.10
2018-05-25T12:41:18.694Z,11.25
2018-05-25T12:43:45.743Z,13.43
2018-05-25T12:46:12.797Z,11.60
2018-05-25T12:48:39.739Z,10.23
2018-05-25T12:51:06.798Z,11.63
2018-05-25T12:53:34.042Z,9.65
2018-05-25T12:56:00.987Z,10.73
2018-05-25T12:58:27.940Z,9.13
2018-05-25T13:00:54.980Z,12.50
2018-05-25T13:03:37.970Z,10.98
2018-05-25T13:06:05.213Z,10.50
2018-05-25T13:08:32.209Z,12.15
2018-05-25T13:10:59.374Z,11.30
2018-05-25T13:13:26.301Z,13.10
2018-05-25T13:15:53.661Z,12.98
2018-05-25T13:18:20.704Z,10.55
2018-05-25T13:20:47.755Z,10.88
2018-05-25T13:23:14.807Z,9.07
2018-05-25T13:25:41.852Z,8.82
2018-05-25T13:28:08.899Z,7.65
2018-05-25T13:30:35.954Z,9.02
2018-05-25T13:33:02.894Z,8.70
2018-05-25T13:35:29.888Z,10.45
2018-05-25T13:37:56.888Z,8.68
2018-05-25T13:40:24.141Z,7.97
2018-05-25T13:42:51.190Z,8.48
2018-05-25T13:45:18.244Z,9.23
2018-05-25T13:47:45.287Z,7.43
2018-05-25T13:50:12.335Z,7.65
2018-05-25T13:52:39.485Z,10.85
2018-05-25T13:55:06.848Z,6.35
2018-05-25T13:57:35.733Z,6.03
2018-05-25T14:00:02.782Z,6.45
2018-05-25T14:02:29.781Z,6.53
2018-05-25T14:04:57.294Z,8.20
2018-05-25T14:07:24.445Z,6.57
2018-05-25T14:09:51.642Z,8.55
2018-05-25T14:12:19.457Z,7.28
2018-05-25T14:14:46.512Z,6.85
2018-05-25T14:17:13.555Z,8.88
2018-05-25T14:19:40.612Z,7.20
2018-05-25T14:22:07.657Z,7.50
2018-05-25T14:24:35.170Z,7.15
2018-05-25T14:27:03.251Z,7.22
2018-05-25T14:29:31.512Z,7.25
2018-05-25T14:31:59.588Z,10.10
2018-05-25T14:34:30.847Z,8.18
2018-05-25T14:36:59.056Z,8.90
2018-05-25T14:39:26.719Z,9.07
2018-05-25T14:41:53.772Z,11.88
2018-05-25T14:44:20.818Z,7.28
2018-05-25T14:46:47.968Z,7.32
2018-05-25T14:49:15.159Z,7.53
2018-05-25T14:51:44.279Z,7.72
2018-05-25T14:54:11.264Z,7.15
2018-05-25T14:56:38.313Z,9.40
2018-05-25T14:59:05.528Z,8.00
2018-05-25T15:01:32.517Z,8.27
2018-05-25T15:03:59.607Z,9.32
2018-05-25T15:06:27.787Z,7.68
2018-05-25T15:08:54.785Z,8.63
2018-05-25T15:11:21.938Z,10.57
2018-05-25T15:13:50.014Z,9.70
2018-05-25T15:16:17.268Z,8.02
2018-05-25T15:18:45.538Z,7.55
2018-05-25T15:21:13.779Z,8.32
2018-05-25T15:23:41.590Z,12.18
2018-05-25T15:26:08.636Z,11.75
2018-05-25T15:28:35.683Z,9.05
2018-05-25T15:31:02.823Z,11.27
2018-05-25T15:33:30.593Z,7.32
2018-05-25T15:35:57.642Z,10.45
2018-05-25T15:38:24.740Z,8.20
2018-05-25T15:40:51.739Z,11.55
2018-05-25T15:43:18.690Z,12.13
2018-05-25T15:45:45.734Z,11.88
2018-05-25T15:48:12.781Z,15.60
2018-05-25T15:50:39.932Z,12.77
2018-05-25T15:53:07.295Z,8.13
2018-05-25T15:55:38.636Z,18.87
2018-05-25T15:58:05.687Z,8.85
2018-05-25T16:00:32.750Z,8.48
2018-05-25T16:02:59.784Z,12.93
2018-05-25T16:05:26.832Z,9.98
2018-05-25T16:07:53.983Z,9.63
2018-05-25T16:10:21.134Z,12.48
2018-05-25T16:12:48.591Z,10.02
2018-05-25T16:15:15.645Z,8.63
2018-05-25T16:17:42.692Z,11.73
2018-05-25T16:20:09.748Z,8.43
2018-05-25T16:22:37.645Z,8.75
2018-05-25T16:25:04.653Z,9.73
2018-05-25T16:27:31.708Z,9.70
2018-05-25T16:29:58.857Z,15.85
2018-05-25T16:32:26.053Z,8.95
2018-05-25T16:34:54.635Z,11.73
2018-05-25T16:37:23.382Z,9.65
2018-05-25T16:39:50.426Z,9.15
2018-05-25T16:42:17.473Z,8.02
2018-05-25T16:44:44.931Z,11.32
2018-05-25T16:47:12.082Z,13.38
2018-05-25T16:49:40.199Z,8.73
2018-05-25T16:52:07.306Z,11.65
2018-05-25T16:54:34.359Z,11.27
2018-05-25T16:57:01.404Z,12.32
2018-05-25T16:59:28.458Z,10.57
2018-05-25T17:01:55.448Z,11.98
2018-05-25T17:04:23.885Z,13.77
2018-05-25T17:06:51.344Z,9.40
2018-05-25T17:09:18.386Z,9.65
2018-05-25T17:11:46.645Z,9.75
2018-05-25T17:14:13.814Z,9.75
2018-05-25T17:16:40.966Z,12.02
2018-05-25T17:19:08.019Z,9.23
2018-05-25T17:21:36.434Z,11.98
2018-05-25T17:24:03.646Z,11.95
2018-05-25T17:26:30.700Z,11.25
2018-05-25T17:28:58.160Z,19.62
2018-05-25T17:31:25.201Z,11.05
2018-05-25T17:33:52.299Z,8.93
2018-05-25T17:36:19.659Z,8.23
2018-05-25T17:38:46.762Z,12.98
2018-05-25T17:41:14.419Z,10.70
2018-05-25T17:43:41.469Z,15.95
2018-05-25T17:46:08.927Z,8.63
2018-05-25T17:48:36.691Z,8.43
2018-05-25T17:51:03.843Z,10.73
2018-05-25T17:53:30.789Z,13.15
2018-05-25T17:55:57.838Z,12.85
2018-05-25T17:58:24.891Z,10.55
2018-05-25T18:00:51.935Z,12.27
2018-05-25T18:03:19.088Z,10.13
2018-05-25T18:05:46.142Z,14.32
2018-05-25T18:08:13.191Z,9.20
2018-05-25T18:10:40.235Z,11.12
2018-05-25T18:13:07.283Z,11.27
2018-05-25T18:15:34.337Z,10.65
2018-05-25T18:18:01.383Z,12.20
2018-05-25T18:20:28.530Z,13.30
2018-05-25T18:22:56.713Z,10.50
2018-05-25T18:25:23.959Z,13.48
2018-05-25T18:27:51.012Z,13.10
2018-05-25T18:30:18.055Z,13.00
2018-05-25T18:32:45.112Z,11.30
2018-05-25T18:35:12.205Z,15.50
2018-05-25T18:37:39.216Z,13.10
2018-05-25T18:40:06.976Z,15.75
2018-05-25T18:42:35.051Z,13.45
2018-05-25T18:45:02.068Z,16.58
2018-05-25T18:47:29.140Z,15.45
2018-05-25T18:49:57.317Z,15.27
2018-05-25T18:52:24.374Z,12.27
2018-05-25T18:54:51.417Z,16.60
2018-05-25T18:57:18.874Z,17.00
2018-05-25T18:59:46.643Z,18.87
2018-05-25T19:02:13.685Z,19.73
2018-05-25T19:04:40.790Z,19.35
2018-05-25T19:07:07.884Z,17.17
2018-05-25T19:09:34.937Z,17.55
2018-05-25T19:12:01.982Z,12.80
2018-05-25T19:14:29.030Z,15.65
2018-05-25T19:16:56.897Z,12.60
2018-05-25T19:19:23.947Z,15.57
2018-05-25T19:21:51.202Z,13.52
2018-05-25T19:24:18.351Z,14.60
2018-05-25T19:26:45.801Z,12.88
2018-05-25T19:29:13.998Z,16.50
2018-05-25T19:31:41.031Z,16.37
2018-05-25T19:34:08.439Z,16.62
2018-05-25T19:36:35.647Z,20.23
2018-05-25T19:39:02.901Z,15.77
2018-05-25T19:41:29.991Z,13.68
2018-05-25T19:43:57.093Z,9.65
2018-05-25T19:46:24.143Z,12.23
2018-05-25T19:48:51.397Z,10.00
2018-05-25T19:51:18.753Z,10.85
2018-05-25T19:53:47.794Z,6.90
2018-05-25T19:56:14.692Z,7.45
2018-05-25T19:58:41.741Z,12.32
2018-05-25T20:01:08.796Z,7.75
2018-05-25T20:03:35.839Z,10.02
2018-05-25T20:06:02.887Z,7.35
2018-05-25T20:08:29.832Z,9.10
2018-05-25T20:10:56.985Z,5.55
2018-05-25T20:13:24.035Z,5.80
2018-05-25T20:15:51.184Z,7.80
2018-05-25T20:18:18.240Z,5.47
2018-05-25T20:20:49.719Z,7.68
2018-05-25T20:23:16.992Z,5.70
2018-05-25T20:25:45.528Z,8.50
2018-05-25T20:28:12.986Z,11.35
2018-05-25T20:30:40.029Z,7.75
2018-05-25T20:33:08.454Z,6.70
2018-05-25T20:35:36.486Z,5.25
2018-05-25T20:38:03.634Z,8.27
2018-05-25T20:40:30.684Z,6.60
2018-05-25T20:42:57.735Z,5.93
2018-05-25T20:45:24.887Z,7.40
2018-05-25T20:47:52.037Z,7.60
2018-05-25T20:50:19.081Z,6.35
2018-05-25T20:52:46.130Z,5.57
2018-05-25T20:55:13.183Z,5.55
2018-05-25T20:57:40.534Z,8.05
2018-05-25T21:00:07.582Z,5.85
2018-05-25T21:02:34.640Z,5.75
2018-05-25T21:05:02.847Z,6.10
2018-05-25T21:07:30.882Z,5.78
2018-05-25T21:10:05.403Z,8.32
2018-05-25T21:12:33.884Z,5.28
2018-05-25T21:15:00.822Z,6.40
2018-05-25T21:17:27.987Z,7.75
2018-05-25T21:19:55.752Z,7.35
2018-05-25T21:22:22.795Z,9.15
2018-05-25T21:24:50.385Z,6.07
2018-05-25T21:27:17.410Z,7.87
2018-05-25T21:29:44.458Z,8.70
2018-05-25T21:32:11.554Z,9.40
2018-05-25T21:34:38.553Z,6.50
2018-05-25T21:37:05.607Z,7.03
2018-05-25T21:39:32.656Z,6.65
2018-05-25T21:41:59.697Z,6.47
2018-05-25T21:44:26.746Z,6.47
2018-05-25T21:46:53.998Z,6.82
2018-05-25T21:49:20.989Z,6.15
2018-05-25T21:51:48.608Z,8.98
2018-05-25T21:54:15.656Z,7.55
2018-05-25T21:56:42.710Z,8.35
2018-05-25T21:59:09.757Z,6.60
2018-05-25T22:01:36.802Z,7.30
2018-05-25T22:04:03.858Z,6.90
2018-05-25T22:06:30.901Z,6.78
2018-05-25T22:08:57.949Z,8.25
2018-05-25T22:11:25.006Z,9.10
2018-05-25T22:13:52.461Z,6.80
2018-05-25T22:16:20.338Z,8.43
2018-05-25T22:18:47.378Z,7.35
2018-05-25T22:21:15.241Z,7.82
2018-05-25T22:23:42.630Z,8.73
2018-05-25T22:26:09.654Z,6.78
2018-05-25T22:28:37.102Z,8.50
2018-05-25T22:31:04.099Z,8.68
2018-05-25T22:33:31.205Z,9.80
2018-05-25T22:35:58.761Z,5.97
2018-05-25T22:38:25.705Z,6.10
2018-05-25T22:40:52.755Z,6.47
2018-05-25T22:43:25.742Z,5.20
2018-05-25T22:45:58.729Z,6.35
2018-05-25T22:48:31.821Z,6.12
2018-05-25T22:51:04.809Z,6.97
2018-05-25T22:53:37.181Z,4.47
2018-05-25T22:56:04.231Z,4.75
2018-05-25T22:58:32.383Z,4.75
2018-05-25T23:00:59.362Z,5.50
2018-05-25T23:03:26.605Z,7.25
2018-05-25T23:05:53.658Z,4.28
2018-05-25T23:08:20.704Z,4.10
2018-05-25T23:10:47.750Z,7.50
2018-05-25T23:13:14.805Z,5.90
2018-05-25T23:15:41.849Z,4.30
2018-05-25T23:18:08.897Z,3.72
2018-05-25T23:20:36.049Z,4.22
2018-05-25T23:23:03.102Z,3.00
2018-05-25T23:25:30.162Z,4.20
2018-05-25T23:27:57.193Z,2.60
2018-05-25T23:32:57.692Z,6.15
2018-05-25T23:35:25.002Z,2.47
2018-05-25T23:37:52.045Z,2.10
2018-05-25T23:40:19.096Z,2.15
2018-05-25T23:42:46.147Z,1.92
2018-05-25T23:45:13.190Z,2.08
2018-05-25T23:47:40.239Z,2.65
2018-05-25T23:50:07.293Z,1.77
2018-05-25T23:52:34.337Z,3.37
2018-05-25T23:55:01.384Z,2.50
2018-05-25T23:57:28.440Z,2.20
2018-05-25T23:59:55.482Z,2.58
